PWSweather.com
Personal Weather Stations
Station Observations
MIGLIARINO
Migliarino, FiscagliaIT 44027

MigliarinoFiscagliaIT 44027

Lat: 44.769682, Lon: 11.93112700000006

Elevation: 3

Station Type: PCE Fws 20

Latest ConditionsUpdated 5:55:03 PM GMT+01:01 Sunday, Sep 23, 2018
Currently Today's Max Today's Min Today's Average
Temperature 75.7°F24.3°C 89.8°F32.1°C 64.0°F17.8°C 75.0°F23.9°C
Dew Point 68.4°F20.2°C 68.9°F20.5°C 58.1°F14.5°C 62.2°F16.8°C
Winds 3.5 mph 5.6 kmh 6.9 mph -11.1 kmh - - 2.5 mph 4.0 kmh
Wind Gusts 5.8 mph9.3 kmh 12.7 mph20.4 kmh - -
Humidity 78% 84% 36% 67%
Pressure 29.90 in1012.5 mb 30.05 in1017.6 mb 29.90 in1012.5 mb -
Hour Temp Dew Point Humidity Winds Wind Gusts Pressure Precip Precip Rate Daily Precip Total
05:55 PM 75.7°F24.3°C 68.4°F20.2°C 78% 3.5 mph 5.6 kmh 5.8 mph9.3 kmh 29.90 in1012.5 mb - 0.00 in0.0 mm 0.00 in0.0 mm
05:50 PM 75.7°F24.3°C 68.4°F20.2°C 78% 3.5 mph N5.6 kmh N 8.1 mph13.0 kmh 29.90 in1012.5 mb - 0.00 in0.0 mm 0.00 in0.0 mm
05:45 PM 75.7°F24.3°C 68.0°F20.0°C 77% 5.8 mph 9.3 kmh 8.1 mph13.0 kmh 29.91 in1012.9 mb - 0.00 in0.0 mm 0.00 in0.0 mm
05:40 PM 75.9°F24.4°C 68.1°F20.1°C 77% 5.8 mph N9.3 kmh N 8.1 mph13.0 kmh 29.91 in1012.9 mb - 0.00 in0.0 mm 0.00 in0.0 mm
05:35 PM 77.2°F25.1°C 68.6°F20.3°C 75% 4.6 mph 7.4 kmh 5.8 mph9.3 kmh 29.91 in1012.9 mb - 0.00 in0.0 mm 0.00 in0.0 mm
05:30 PM 77.2°F25.1°C 68.2°F20.1°C 74% 5.8 mph N9.3 kmh N 8.1 mph13.0 kmh 29.91 in1012.9 mb - 0.00 in0.0 mm 0.00 in0.0 mm
05:25 PM 77.2°F25.1°C 67.9°F19.9°C 73% 5.8 mph 9.3 kmh 9.2 mph14.8 kmh 29.91 in1012.9 mb - 0.00 in0.0 mm 0.00 in0.0 mm
05:20 PM 77.5°F25.3°C 67.8°F19.9°C 72% 3.5 mph 5.6 kmh 5.8 mph9.3 kmh 29.91 in1012.9 mb - 0.00 in0.0 mm 0.00 in0.0 mm
05:15 PM 77.7°F25.4°C 67.6°F19.8°C 71% 1.2 mph 1.9 kmh 3.5 mph5.6 kmh 29.91 in1012.9 mb - 0.00 in0.0 mm 0.00 in0.0 mm
05:10 PM 78.1°F25.6°C 67.9°F19.9°C 71% 3.5 mph N5.6 kmh N 8.1 mph13.0 kmh 29.91 in1012.9 mb - 0.00 in0.0 mm 0.00 in0.0 mm
05:00 PM 80.8°F27.1°C 68.8°F20.4°C 67% 2.3 mph N3.7 kmh N 8.1 mph13.0 kmh 29.91 in1012.9 mb - 0.00 in0.0 mm 0.00 in0.0 mm
04:55 PM 81.3°F27.4°C 68.9°F20.5°C 66% 5.8 mph 9.3 kmh 12.7 mph20.4 kmh 29.91 in1012.9 mb - 0.00 in0.0 mm 0.00 in0.0 mm
04:50 PM 81.7°F27.6°C 68.8°F20.4°C 65% 4.6 mph 7.4 kmh 6.9 mph11.1 kmh 29.91 in1012.9 mb - 0.00 in0.0 mm 0.00 in0.0 mm
04:45 PM 82.4°F28.0°C 68.6°F20.3°C 63% 4.6 mph N7.4 kmh N 8.1 mph13.0 kmh 29.91 in1012.9 mb - 0.00 in0.0 mm 0.00 in0.0 mm
04:40 PM 82.8°F28.2°C 68.4°F20.2°C 62% 3.5 mph 5.6 kmh 8.1 mph13.0 kmh 29.91 in1012.9 mb - 0.00 in0.0 mm 0.00 in0.0 mm
04:35 PM 83.1°F28.4°C 68.7°F20.4°C 62% 3.5 mph N5.6 kmh N 8.1 mph13.0 kmh 29.91 in1012.9 mb - 0.00 in0.0 mm 0.00 in0.0 mm
04:30 PM 83.5°F28.6°C 67.7°F19.8°C 59% 4.6 mph N7.4 kmh N 8.1 mph13.0 kmh 29.91 in1012.9 mb - 0.00 in0.0 mm 0.00 in0.0 mm
04:25 PM 84.0°F28.9°C 68.1°F20.1°C 59% 4.6 mph 7.4 kmh 8.1 mph13.0 kmh 29.92 in1013.2 mb - 0.00 in0.0 mm 0.00 in0.0 mm
04:20 PM 84.2°F29.0°C 67.3°F19.6°C 57% 3.5 mph N5.6 kmh N 5.8 mph9.3 kmh 29.93 in1013.5 mb - 0.00 in0.0 mm 0.00 in0.0 mm
04:15 PM 84.7°F29.3°C 67.3°F19.6°C 56% 3.5 mph 5.6 kmh 8.1 mph13.0 kmh 29.92 in1013.2 mb - 0.00 in0.0 mm 0.00 in0.0 mm
04:10 PM 85.1°F29.5°C 67.1°F19.5°C 55% 2.3 mph N3.7 kmh N 3.5 mph5.6 kmh 29.92 in1013.2 mb - 0.00 in0.0 mm 0.00 in0.0 mm
04:00 PM 86.0°F30.0°C 65.8°F18.8°C 51% 1.2 mph N1.9 kmh N 5.8 mph9.3 kmh 29.92 in1013.2 mb - 0.00 in0.0 mm 0.00 in0.0 mm
03:55 PM 86.4°F30.2°C 66.1°F18.9°C 51% 3.5 mph 5.6 kmh 5.8 mph9.3 kmh 29.93 in1013.5 mb - 0.00 in0.0 mm 0.00 in0.0 mm
03:50 PM 87.1°F30.6°C 66.2°F19.0°C 50% 2.3 mph N3.7 kmh N 4.6 mph7.4 kmh 29.92 in1013.2 mb - 0.00 in0.0 mm 0.00 in0.0 mm
03:45 PM 88.2°F31.2°C 65.4°F18.6°C 47% 5.8 mph 9.3 kmh 6.9 mph11.1 kmh 29.93 in1013.5 mb - 0.00 in0.0 mm 0.00 in0.0 mm
03:40 PM 88.7°F31.5°C 59.8°F15.4°C 38% 3.5 mph 5.6 kmh 8.1 mph13.0 kmh 29.93 in1013.5 mb - 0.00 in0.0 mm 0.00 in0.0 mm
03:35 PM 88.3°F31.3°C 58.8°F14.9°C 37% 1.2 mph N1.9 kmh N 1.2 mph1.9 kmh 29.93 in1013.5 mb - 0.00 in0.0 mm 0.00 in0.0 mm
03:30 PM 88.3°F31.3°C 59.5°F15.3°C 38% 1.2 mph N1.9 kmh N 2.3 mph3.7 kmh 29.93 in1013.5 mb - 0.00 in0.0 mm 0.00 in0.0 mm
03:25 PM 88.0°F31.1°C 58.4°F14.7°C 37% 1.2 mph 1.9 kmh 3.5 mph5.6 kmh 29.93 in1013.5 mb - 0.00 in0.0 mm 0.00 in0.0 mm
03:20 PM 88.7°F31.5°C 59.1°F15.1°C 37% 3.5 mph 5.6 kmh 4.6 mph7.4 kmh 29.93 in1013.5 mb - 0.00 in0.0 mm 0.00 in0.0 mm
03:15 PM 88.9°F31.6°C 58.5°F14.7°C 36% 3.5 mph N5.6 kmh N 5.8 mph9.3 kmh 29.94 in1013.9 mb - 0.00 in0.0 mm 0.00 in0.0 mm
03:10 PM 88.7°F31.5°C 59.1°F15.1°C 37% 1.2 mph 1.9 kmh 3.5 mph5.6 kmh 29.94 in1013.9 mb - 0.00 in0.0 mm 0.00 in0.0 mm
03:00 PM 89.1°F31.7°C 60.1°F15.6°C 38% 1.2 mph 1.9 kmh 3.5 mph5.6 kmh 29.94 in1013.9 mb - 0.00 in0.0 mm 0.00 in0.0 mm
02:55 PM 88.7°F31.5°C 60.6°F15.9°C 39% 1.2 mph 1.9 kmh 3.5 mph5.6 kmh 29.95 in1014.2 mb - 0.00 in0.0 mm 0.00 in0.0 mm
02:50 PM 88.7°F31.5°C 60.6°F15.9°C 39% 1.2 mph N1.9 kmh N 3.5 mph5.6 kmh 29.94 in1013.9 mb - 0.00 in0.0 mm 0.00 in0.0 mm
02:45 PM 89.4°F31.9°C 61.2°F16.2°C 39% 1.2 mph N1.9 kmh N 3.5 mph5.6 kmh 29.94 in1013.9 mb - 0.00 in0.0 mm 0.00 in0.0 mm
02:40 PM 89.4°F31.9°C 61.2°F16.2°C 39% 2.3 mph 3.7 kmh 3.5 mph5.6 kmh 29.95 in1014.2 mb - 0.00 in0.0 mm 0.00 in0.0 mm
02:35 PM 89.8°F32.1°C 60.8°F16.0°C 38% 1.2 mph 1.9 kmh 2.3 mph3.7 kmh 29.95 in1014.2 mb - 0.00 in0.0 mm 0.00 in0.0 mm
02:30 PM 89.2°F31.8°C 62.4°F16.9°C 41% Calm Calm 1.2 mph1.9 kmh 29.95 in1014.2 mb - 0.00 in0.0 mm 0.00 in0.0 mm
02:25 PM 88.3°F31.3°C 61.6°F16.4°C 41% 1.2 mph N1.9 kmh N 2.3 mph3.7 kmh 29.95 in1014.2 mb - 0.00 in0.0 mm 0.00 in0.0 mm
02:20 PM 88.0°F31.1°C 61.3°F16.3°C 41% 1.2 mph 1.9 kmh 2.3 mph3.7 kmh 29.96 in1014.6 mb - 0.00 in0.0 mm 0.00 in0.0 mm
02:15 PM 88.3°F31.3°C 62.3°F16.8°C 42% 2.3 mph 3.7 kmh 4.6 mph7.4 kmh 29.96 in1014.6 mb - 0.00 in0.0 mm 0.00 in0.0 mm
02:10 PM 87.6°F30.9°C 62.4°F16.9°C 43% 1.2 mph 1.9 kmh 2.3 mph3.7 kmh 29.96 in1014.6 mb - 0.00 in0.0 mm 0.00 in0.0 mm
02:00 PM 87.6°F30.9°C 62.4°F16.9°C 43% Calm Calm 1.2 mph1.9 kmh 29.98 in1015.2 mb - 0.00 in0.0 mm 0.00 in0.0 mm
01:55 PM 88.0°F31.1°C 61.3°F16.3°C 41% 1.2 mph 1.9 kmh 3.5 mph5.6 kmh 29.97 in1014.9 mb - 0.00 in0.0 mm 0.00 in0.0 mm
01:50 PM 88.0°F31.1°C 62.0°F16.7°C 42% Calm Calm 4.6 mph7.4 kmh 29.97 in1014.9 mb - 0.00 in0.0 mm 0.00 in0.0 mm
01:45 PM 88.0°F31.1°C 62.0°F16.7°C 42% 1.2 mph 1.9 kmh 3.5 mph5.6 kmh 29.97 in1014.9 mb - 0.00 in0.0 mm 0.00 in0.0 mm
01:40 PM 88.0°F31.1°C 62.0°F16.7°C 42% 1.2 mph N1.9 kmh N 2.3 mph3.7 kmh 29.97 in1014.9 mb - 0.00 in0.0 mm 0.00 in0.0 mm
01:35 PM 88.3°F31.3°C 62.3°F16.8°C 42% 1.2 mph 1.9 kmh 2.3 mph3.7 kmh 29.98 in1015.2 mb - 0.00 in0.0 mm 0.00 in0.0 mm
01:30 PM 88.2°F31.2°C 62.2°F16.8°C 42% 1.2 mph 1.9 kmh 3.5 mph5.6 kmh 29.98 in1015.2 mb - 0.00 in0.0 mm 0.00 in0.0 mm
01:25 PM 87.6°F30.9°C 63.0°F17.2°C 44% 3.5 mph N5.6 kmh N 5.8 mph9.3 kmh 29.98 in1015.2 mb - 0.00 in0.0 mm 0.00 in0.0 mm
01:20 PM 88.0°F31.1°C 63.3°F17.4°C 44% 2.3 mph 3.7 kmh 3.5 mph5.6 kmh 29.98 in1015.2 mb - 0.00 in0.0 mm 0.00 in0.0 mm
01:15 PM 87.6°F30.9°C 64.3°F17.9°C 46% 2.3 mph 3.7 kmh 3.5 mph5.6 kmh 29.99 in1015.6 mb - 0.00 in0.0 mm 0.00 in0.0 mm
01:10 PM 87.2°F30.7°C 63.9°F17.7°C 46% 3.5 mph 5.6 kmh 4.6 mph7.4 kmh 29.98 in1015.2 mb - 0.00 in0.0 mm 0.00 in0.0 mm
01:00 PM 87.1°F30.6°C 63.8°F17.7°C 46% Calm Calm 3.5 mph5.6 kmh 29.99 in1015.6 mb - 0.00 in0.0 mm 0.00 in0.0 mm
12:55 PM 86.9°F30.5°C 63.6°F17.6°C 46% 1.2 mph 1.9 kmh 3.5 mph5.6 kmh 29.99 in1015.6 mb - 0.00 in0.0 mm 0.00 in0.0 mm
12:50 PM 86.3°F30.2°C 63.7°F17.6°C 47% 1.2 mph 1.9 kmh 3.5 mph5.6 kmh 30.00 in1015.9 mb - 0.00 in0.0 mm 0.00 in0.0 mm
12:45 PM 85.8°F29.9°C 63.9°F17.7°C 48% 1.2 mph 1.9 kmh 3.5 mph5.6 kmh 30.01 in1016.3 mb - 0.00 in0.0 mm 0.00 in0.0 mm
12:40 PM 85.4°F29.7°C 65.3°F18.5°C 51% 1.2 mph N1.9 kmh N 2.3 mph3.7 kmh 30.00 in1015.9 mb - 0.00 in0.0 mm 0.00 in0.0 mm
12:35 PM 85.1°F29.5°C 64.9°F18.3°C 51% 1.2 mph 1.9 kmh 2.3 mph3.7 kmh 30.01 in1016.3 mb - 0.00 in0.0 mm 0.00 in0.0 mm
12:30 PM 85.1°F29.5°C 64.9°F18.3°C 51% 2.3 mph 3.7 kmh 3.5 mph5.6 kmh 30.01 in1016.3 mb - 0.00 in0.0 mm 0.00 in0.0 mm
12:25 PM 84.7°F29.3°C 65.1°F18.4°C 52% 3.5 mph N5.6 kmh N 3.5 mph5.6 kmh 30.01 in1016.3 mb - 0.00 in0.0 mm 0.00 in0.0 mm
12:20 PM 84.4°F29.1°C 64.3°F17.9°C 51% 1.2 mph 1.9 kmh 3.5 mph5.6 kmh 30.01 in1016.3 mb - 0.00 in0.0 mm 0.00 in0.0 mm
12:15 PM 84.7°F29.3°C 64.6°F18.1°C 51% 1.2 mph N1.9 kmh N 4.6 mph7.4 kmh 30.02 in1016.6 mb - 0.00 in0.0 mm 0.00 in0.0 mm
12:10 PM 85.1°F29.5°C 65.5°F18.6°C 52% 2.3 mph N3.7 kmh N 3.5 mph5.6 kmh 30.02 in1016.6 mb - 0.00 in0.0 mm 0.00 in0.0 mm
12:00 PM 84.2°F29.0°C 64.7°F18.2°C 52% 2.3 mph 3.7 kmh 3.5 mph5.6 kmh 30.02 in1016.6 mb - 0.00 in0.0 mm 0.00 in0.0 mm
11:55 AM 84.4°F29.1°C 64.8°F18.2°C 52% 1.2 mph 1.9 kmh 3.5 mph5.6 kmh 30.02 in1016.6 mb - 0.00 in0.0 mm 0.00 in0.0 mm
11:50 AM 84.2°F29.0°C 64.7°F18.2°C 52% 1.2 mph N1.9 kmh N 4.6 mph7.4 kmh 30.02 in1016.6 mb - 0.00 in0.0 mm 0.00 in0.0 mm
11:45 AM 84.4°F29.1°C 64.3°F17.9°C 51% 1.2 mph 1.9 kmh 3.5 mph5.6 kmh 30.03 in1016.9 mb - 0.00 in0.0 mm 0.00 in0.0 mm
11:40 AM 84.2°F29.0°C 64.7°F18.2°C 52% 1.2 mph 1.9 kmh 3.5 mph5.6 kmh 30.03 in1016.9 mb - 0.00 in0.0 mm 0.00 in0.0 mm
11:35 AM 83.8°F28.8°C 64.9°F18.3°C 53% 1.2 mph 1.9 kmh 3.5 mph5.6 kmh 30.02 in1016.6 mb - 0.00 in0.0 mm 0.00 in0.0 mm
11:30 AM 83.5°F28.6°C 65.1°F18.4°C 54% 1.2 mph N1.9 kmh N 3.5 mph5.6 kmh 30.03 in1016.9 mb - 0.00 in0.0 mm 0.00 in0.0 mm
11:25 AM 83.1°F28.4°C 64.8°F18.2°C 54% 1.2 mph 1.9 kmh 3.5 mph5.6 kmh 30.02 in1016.6 mb - 0.00 in0.0 mm 0.00 in0.0 mm
11:20 AM 83.1°F28.4°C 64.8°F18.2°C 54% 1.2 mph 1.9 kmh 2.3 mph3.7 kmh 30.03 in1016.9 mb - 0.00 in0.0 mm 0.00 in0.0 mm
11:15 AM 83.1°F28.4°C 64.8°F18.2°C 54% 1.2 mph 1.9 kmh 3.5 mph5.6 kmh 30.04 in1017.3 mb - 0.00 in0.0 mm 0.00 in0.0 mm
11:10 AM 80.1°F26.7°C 64.0°F17.8°C 58% 2.3 mph N3.7 kmh N 3.5 mph5.6 kmh 30.04 in1017.3 mb - 0.00 in0.0 mm 0.00 in0.0 mm
11:00 AM 80.1°F26.7°C 63.5°F17.5°C 57% Calm Calm 2.3 mph3.7 kmh 30.04 in1017.3 mb - 0.00 in0.0 mm 0.00 in0.0 mm
10:55 AM 80.1°F26.7°C 64.4°F18.0°C 59% Calm Calm 2.3 mph3.7 kmh 30.04 in1017.3 mb - 0.00 in0.0 mm 0.00 in0.0 mm
10:50 AM 79.5°F26.4°C 63.9°F17.7°C 59% 2.3 mph 3.7 kmh 3.5 mph5.6 kmh 30.04 in1017.3 mb - 0.00 in0.0 mm 0.00 in0.0 mm
10:45 AM 79.3°F26.3°C 64.2°F17.9°C 60% 1.2 mph N1.9 kmh N 3.5 mph5.6 kmh 30.04 in1017.3 mb - 0.00 in0.0 mm 0.00 in0.0 mm
10:40 AM 79.3°F26.3°C 63.8°F17.7°C 59% 2.3 mph N3.7 kmh N 3.5 mph5.6 kmh 30.04 in1017.3 mb - 0.00 in0.0 mm 0.00 in0.0 mm
10:35 AM 79.2°F26.2°C 63.6°F17.6°C 59% 1.2 mph N1.9 kmh N 3.5 mph5.6 kmh 30.04 in1017.3 mb - 0.00 in0.0 mm 0.00 in0.0 mm
10:30 AM 79.0°F26.1°C 63.4°F17.4°C 59% 1.2 mph 1.9 kmh 4.6 mph7.4 kmh 30.04 in1017.3 mb - 0.00 in0.0 mm 0.00 in0.0 mm
10:25 AM 79.3°F26.3°C 63.8°F17.7°C 59% 1.2 mph 1.9 kmh 3.5 mph5.6 kmh 30.04 in1017.3 mb - 0.00 in0.0 mm 0.00 in0.0 mm
10:20 AM 79.3°F26.3°C 63.8°F17.7°C 59% 2.3 mph 3.7 kmh 3.5 mph5.6 kmh 30.04 in1017.3 mb - 0.00 in0.0 mm 0.00 in0.0 mm
10:15 AM 78.3°F25.7°C 63.7°F17.6°C 61% Calm Calm 2.3 mph3.7 kmh 30.04 in1017.3 mb - 0.00 in0.0 mm 0.00 in0.0 mm
10:10 AM 78.1°F25.6°C 63.1°F17.3°C 60% 1.2 mph 1.9 kmh 2.3 mph3.7 kmh 30.04 in1017.3 mb - 0.00 in0.0 mm 0.00 in0.0 mm
10:00 AM 77.5°F25.3°C 63.5°F17.5°C 62% 2.3 mph N3.7 kmh N 3.5 mph5.6 kmh 30.04 in1017.3 mb - 0.00 in0.0 mm 0.00 in0.0 mm
09:55 AM 77.2°F25.1°C 63.2°F17.3°C 62% Calm Calm 1.2 mph1.9 kmh 30.04 in1017.3 mb - 0.00 in0.0 mm 0.00 in0.0 mm
09:50 AM 77.1°F25.1°C 62.6°F17.0°C 61% 1.2 mph 1.9 kmh 2.3 mph3.7 kmh 30.05 in1017.6 mb - 0.00 in0.0 mm 0.00 in0.0 mm
09:45 AM 75.7°F24.3°C 61.8°F16.6°C 62% 1.2 mph N1.9 kmh N 3.5 mph5.6 kmh 30.04 in1017.3 mb - 0.00 in0.0 mm 0.00 in0.0 mm
09:40 AM 75.7°F24.3°C 62.2°F16.8°C 63% 1.2 mph 1.9 kmh 1.2 mph1.9 kmh 30.05 in1017.6 mb - 0.00 in0.0 mm 0.00 in0.0 mm
09:35 AM 75.5°F24.2°C 62.1°F16.7°C 63% 2.3 mph N3.7 kmh N 3.5 mph5.6 kmh 30.04 in1017.3 mb - 0.00 in0.0 mm 0.00 in0.0 mm
09:30 AM 75.2°F24.0°C 61.8°F16.6°C 63% 1.2 mph 1.9 kmh 3.5 mph5.6 kmh 30.04 in1017.3 mb - 0.00 in0.0 mm 0.00 in0.0 mm
09:25 AM 75.4°F24.1°C 61.9°F16.6°C 63% 1.2 mph 1.9 kmh 4.6 mph7.4 kmh 30.04 in1017.3 mb - 0.00 in0.0 mm 0.00 in0.0 mm
09:20 AM 74.8°F23.8°C 62.3°F16.8°C 65% 1.2 mph N1.9 kmh N 3.5 mph5.6 kmh 30.05 in1017.6 mb - 0.00 in0.0 mm 0.00 in0.0 mm
09:15 AM 74.1°F23.4°C 61.6°F16.4°C 65% Calm Calm 3.5 mph5.6 kmh 30.05 in1017.6 mb - 0.00 in0.0 mm 0.00 in0.0 mm
09:10 AM 73.4°F23.0°C 61.8°F16.6°C 67% 1.2 mph N1.9 kmh N 2.3 mph3.7 kmh 30.04 in1017.3 mb - 0.00 in0.0 mm 0.00 in0.0 mm
09:00 AM 72.1°F22.3°C 60.6°F15.9°C 67% 1.2 mph 1.9 kmh 3.5 mph5.6 kmh 30.05 in1017.6 mb - 0.00 in0.0 mm 0.00 in0.0 mm
08:55 AM 71.8°F22.1°C 60.2°F15.7°C 67% 1.2 mph N1.9 kmh N 4.6 mph7.4 kmh 30.04 in1017.3 mb - 0.00 in0.0 mm 0.00 in0.0 mm
08:50 AM 71.8°F22.1°C 60.6°F15.9°C 68% 2.3 mph 3.7 kmh 3.5 mph5.6 kmh 30.04 in1017.3 mb - 0.00 in0.0 mm 0.00 in0.0 mm
08:45 AM 71.1°F21.7°C 60.4°F15.8°C 69% 1.2 mph 1.9 kmh 3.5 mph5.6 kmh 30.03 in1016.9 mb - 0.00 in0.0 mm 0.00 in0.0 mm
08:40 AM 70.9°F21.6°C 60.2°F15.7°C 69% 3.5 mph N5.6 kmh N 5.8 mph9.3 kmh 30.04 in1017.3 mb - 0.00 in0.0 mm 0.00 in0.0 mm
08:35 AM 70.5°F21.4°C 59.8°F15.4°C 69% 1.2 mph N1.9 kmh N 3.5 mph5.6 kmh 30.04 in1017.3 mb - 0.00 in0.0 mm 0.00 in0.0 mm
08:30 AM 70.1°F21.2°C 59.5°F15.3°C 69% 3.5 mph 5.6 kmh 5.8 mph9.3 kmh 30.03 in1016.9 mb - 0.00 in0.0 mm 0.00 in0.0 mm
08:25 AM 69.8°F21.0°C 59.6°F15.3°C 70% 1.2 mph N1.9 kmh N 3.5 mph5.6 kmh 30.03 in1016.9 mb - 0.00 in0.0 mm 0.00 in0.0 mm
08:20 AM 69.2°F20.7°C 59.8°F15.4°C 72% 1.2 mph 1.9 kmh 3.5 mph5.6 kmh 30.03 in1016.9 mb - 0.00 in0.0 mm 0.00 in0.0 mm
08:15 AM 68.7°F20.4°C 59.3°F15.2°C 72% 3.5 mph 5.6 kmh 5.8 mph9.3 kmh 30.03 in1016.9 mb - 0.00 in0.0 mm 0.00 in0.0 mm
08:10 AM 68.5°F20.3°C 59.1°F15.1°C 72% 2.3 mph N3.7 kmh N 5.8 mph9.3 kmh 30.03 in1016.9 mb - 0.00 in0.0 mm 0.00 in0.0 mm
08:00 AM 67.6°F19.8°C 59.1°F15.1°C 74% 2.3 mph N3.7 kmh N 4.6 mph7.4 kmh 30.02 in1016.6 mb - 0.00 in0.0 mm 0.00 in0.0 mm
07:55 AM 67.3°F19.6°C 59.1°F15.1°C 75% 2.3 mph N3.7 kmh N 3.5 mph5.6 kmh 30.02 in1016.6 mb - 0.00 in0.0 mm 0.00 in0.0 mm
07:50 AM 67.1°F19.5°C 58.9°F14.9°C 75% 3.5 mph 5.6 kmh 4.6 mph7.4 kmh 30.02 in1016.6 mb - 0.00 in0.0 mm 0.00 in0.0 mm
07:45 AM 66.6°F19.2°C 58.8°F14.9°C 76% 2.3 mph N3.7 kmh N 4.6 mph7.4 kmh 30.02 in1016.6 mb - 0.00 in0.0 mm 0.00 in0.0 mm
07:40 AM 66.4°F19.1°C 58.6°F14.8°C 76% 2.3 mph 3.7 kmh 3.5 mph5.6 kmh 30.02 in1016.6 mb - 0.00 in0.0 mm 0.00 in0.0 mm
07:35 AM 66.0°F18.9°C 58.6°F14.8°C 77% 2.3 mph N3.7 kmh N 4.6 mph7.4 kmh 30.02 in1016.6 mb - 0.00 in0.0 mm 0.00 in0.0 mm
07:30 AM 65.8°F18.8°C 58.4°F14.7°C 77% 2.3 mph N3.7 kmh N 5.8 mph9.3 kmh 30.02 in1016.6 mb - 0.00 in0.0 mm 0.00 in0.0 mm
07:25 AM 65.8°F18.8°C 58.8°F14.9°C 78% 3.5 mph 5.6 kmh 5.8 mph9.3 kmh 30.02 in1016.6 mb - 0.00 in0.0 mm 0.00 in0.0 mm
07:20 AM 65.8°F18.8°C 58.8°F14.9°C 78% 3.5 mph N5.6 kmh N 6.9 mph11.1 kmh 30.02 in1016.6 mb - 0.00 in0.0 mm 0.00 in0.0 mm
07:15 AM 65.8°F18.8°C 59.1°F15.1°C 79% 3.5 mph N5.6 kmh N 5.8 mph9.3 kmh 30.02 in1016.6 mb - 0.00 in0.0 mm 0.00 in0.0 mm
07:10 AM 65.7°F18.7°C 59.3°F15.2°C 80% 5.8 mph 9.3 kmh 6.9 mph11.1 kmh 30.02 in1016.6 mb - 0.00 in0.0 mm 0.00 in0.0 mm
07:00 AM 65.3°F18.5°C 59.7°F15.4°C 82% 3.5 mph N5.6 kmh N 8.1 mph13.0 kmh 30.02 in1016.6 mb - 0.00 in0.0 mm 0.00 in0.0 mm
06:55 AM 64.9°F18.3°C 59.7°F15.4°C 83% 2.3 mph N3.7 kmh N 5.8 mph9.3 kmh 30.02 in1016.6 mb - 0.00 in0.0 mm 0.00 in0.0 mm
06:50 AM 64.7°F18.2°C 59.5°F15.3°C 83% 3.5 mph 5.6 kmh 5.8 mph9.3 kmh 30.02 in1016.6 mb - 0.00 in0.0 mm 0.00 in0.0 mm
06:45 AM 64.4°F18.0°C 59.1°F15.1°C 83% 2.3 mph N3.7 kmh N 5.8 mph9.3 kmh 30.01 in1016.3 mb - 0.00 in0.0 mm 0.00 in0.0 mm
06:40 AM 64.2°F17.9°C 58.3°F14.6°C 81% 3.5 mph 5.6 kmh 5.8 mph9.3 kmh 30.00 in1015.9 mb - 0.00 in0.0 mm 0.00 in0.0 mm
06:35 AM 64.0°F17.8°C 58.1°F14.5°C 81% 3.5 mph 5.6 kmh 5.8 mph9.3 kmh 30.01 in1016.3 mb - 0.00 in0.0 mm 0.00 in0.0 mm
06:30 AM 64.0°F17.8°C 58.1°F14.5°C 81% 2.3 mph N3.7 kmh N 4.6 mph7.4 kmh 30.01 in1016.3 mb - 0.00 in0.0 mm 0.00 in0.0 mm
06:25 AM 64.0°F17.8°C 58.1°F14.5°C 81% 1.2 mph N1.9 kmh N 4.6 mph7.4 kmh 30.00 in1015.9 mb - 0.00 in0.0 mm 0.00 in0.0 mm
06:20 AM 64.2°F17.9°C 58.3°F14.6°C 81% 2.3 mph N3.7 kmh N 3.5 mph5.6 kmh 30.01 in1016.3 mb - 0.00 in0.0 mm 0.00 in0.0 mm
06:15 AM 64.2°F17.9°C 58.3°F14.6°C 81% 3.5 mph N5.6 kmh N 4.6 mph7.4 kmh 30.01 in1016.3 mb - 0.00 in0.0 mm 0.00 in0.0 mm
06:10 AM 64.2°F17.9°C 58.3°F14.6°C 81% 3.5 mph 5.6 kmh 5.8 mph9.3 kmh 30.00 in1015.9 mb - 0.00 in0.0 mm 0.00 in0.0 mm
06:00 AM 64.4°F18.0°C 59.1°F15.1°C 83% 2.3 mph 3.7 kmh 3.5 mph5.6 kmh 30.00 in1015.9 mb - 0.00 in0.0 mm 0.00 in0.0 mm
05:55 AM 64.4°F18.0°C 59.1°F15.1°C 83% 1.2 mph 1.9 kmh 2.3 mph3.7 kmh 30.00 in1015.9 mb - 0.00 in0.0 mm 0.00 in0.0 mm
05:50 AM 64.8°F18.2°C 59.5°F15.3°C 83% 2.3 mph 3.7 kmh 3.5 mph5.6 kmh 30.00 in1015.9 mb - 0.00 in0.0 mm 0.00 in0.0 mm
05:45 AM 64.8°F18.2°C 59.5°F15.3°C 83% 1.2 mph N1.9 kmh N 3.5 mph5.6 kmh 30.00 in1015.9 mb - 0.00 in0.0 mm 0.00 in0.0 mm
05:40 AM 64.8°F18.2°C 59.5°F15.3°C 83% 2.3 mph N3.7 kmh N 3.5 mph5.6 kmh 30.00 in1015.9 mb - 0.00 in0.0 mm 0.00 in0.0 mm
05:35 AM 64.8°F18.2°C 59.5°F15.3°C 83% 1.2 mph 1.9 kmh 3.5 mph5.6 kmh 30.00 in1015.9 mb - 0.00 in0.0 mm 0.00 in0.0 mm
05:30 AM 64.8°F18.2°C 59.8°F15.4°C 84% 2.3 mph N3.7 kmh N 4.6 mph7.4 kmh 30.00 in1015.9 mb - 0.00 in0.0 mm 0.00 in0.0 mm
05:25 AM 64.8°F18.2°C 59.8°F15.4°C 84% 2.3 mph N3.7 kmh N 4.6 mph7.4 kmh 30.00 in1015.9 mb - 0.00 in0.0 mm 0.00 in0.0 mm
05:20 AM 64.8°F18.2°C 59.8°F15.4°C 84% 2.3 mph N3.7 kmh N 4.6 mph7.4 kmh 30.00 in1015.9 mb - 0.00 in0.0 mm 0.00 in0.0 mm
05:15 AM 64.8°F18.2°C 59.8°F15.4°C 84% 3.5 mph 5.6 kmh 5.8 mph9.3 kmh 30.00 in1015.9 mb - 0.00 in0.0 mm 0.00 in0.0 mm
05:10 AM 64.9°F18.3°C 60.0°F15.6°C 84% 3.5 mph 5.6 kmh 5.8 mph9.3 kmh 30.00 in1015.9 mb - 0.00 in0.0 mm 0.00 in0.0 mm
05:00 AM 65.1°F18.4°C 60.2°F15.7°C 84% 3.5 mph N5.6 kmh N 5.8 mph9.3 kmh 30.00 in1015.9 mb - 0.00 in0.0 mm 0.00 in0.0 mm
04:55 AM 65.1°F18.4°C 59.8°F15.4°C 83% 1.2 mph 1.9 kmh 3.5 mph5.6 kmh 30.00 in1015.9 mb - 0.00 in0.0 mm 0.00 in0.0 mm
04:50 AM 65.3°F18.5°C 60.0°F15.6°C 83% 1.2 mph 1.9 kmh 5.8 mph9.3 kmh 30.00 in1015.9 mb - 0.00 in0.0 mm 0.00 in0.0 mm
04:45 AM 65.3°F18.5°C 60.0°F15.6°C 83% 1.2 mph 1.9 kmh 2.3 mph3.7 kmh 30.00 in1015.9 mb - 0.00 in0.0 mm 0.00 in0.0 mm
04:40 AM 65.3°F18.5°C 60.0°F15.6°C 83% 4.6 mph 7.4 kmh 5.8 mph9.3 kmh 30.00 in1015.9 mb - 0.00 in0.0 mm 0.00 in0.0 mm
04:35 AM 65.5°F18.6°C 60.2°F15.7°C 83% 3.5 mph 5.6 kmh 5.8 mph9.3 kmh 30.01 in1016.3 mb - 0.00 in0.0 mm 0.00 in0.0 mm
04:30 AM 65.7°F18.7°C 60.0°F15.6°C 82% 4.6 mph 7.4 kmh 5.8 mph9.3 kmh 30.00 in1015.9 mb - 0.00 in0.0 mm 0.00 in0.0 mm
04:25 AM 66.0°F18.9°C 60.4°F15.8°C 82% 3.5 mph N5.6 kmh N 3.5 mph5.6 kmh 30.00 in1015.9 mb - 0.00 in0.0 mm 0.00 in0.0 mm
04:20 AM 66.2°F19.0°C 60.2°F15.7°C 81% 1.2 mph 1.9 kmh 3.5 mph5.6 kmh 30.00 in1015.9 mb - 0.00 in0.0 mm 0.00 in0.0 mm
04:15 AM 66.2°F19.0°C 60.2°F15.7°C 81% 1.2 mph 1.9 kmh 3.5 mph5.6 kmh 30.00 in1015.9 mb - 0.00 in0.0 mm 0.00 in0.0 mm
04:10 AM 66.6°F19.2°C 60.6°F15.9°C 81% 1.2 mph N1.9 kmh N 3.5 mph5.6 kmh 30.00 in1015.9 mb - 0.00 in0.0 mm 0.00 in0.0 mm
04:00 AM 67.1°F19.5°C 61.1°F16.2°C 81% 1.2 mph 1.9 kmh 3.5 mph5.6 kmh 29.99 in1015.6 mb - 0.00 in0.0 mm 0.00 in0.0 mm
03:55 AM 67.3°F19.6°C 61.2°F16.2°C 81% 2.3 mph N3.7 kmh N 4.6 mph7.4 kmh 30.00 in1015.9 mb - 0.00 in0.0 mm 0.00 in0.0 mm
03:50 AM 67.5°F19.7°C 61.4°F16.3°C 81% 1.2 mph N1.9 kmh N 3.5 mph5.6 kmh 30.00 in1015.9 mb - 0.00 in0.0 mm 0.00 in0.0 mm
03:45 AM 67.6°F19.8°C 61.6°F16.4°C 81% 3.5 mph 5.6 kmh 4.6 mph7.4 kmh 30.00 in1015.9 mb - 0.00 in0.0 mm 0.00 in0.0 mm
03:40 AM 67.6°F19.8°C 61.2°F16.2°C 80% 2.3 mph N3.7 kmh N 3.5 mph5.6 kmh 30.00 in1015.9 mb - 0.00 in0.0 mm 0.00 in0.0 mm
03:35 AM 67.5°F19.7°C 61.1°F16.2°C 80% 1.2 mph 1.9 kmh 2.3 mph3.7 kmh 30.00 in1015.9 mb - 0.00 in0.0 mm 0.00 in0.0 mm
03:30 AM 67.5°F19.7°C 61.1°F16.2°C 80% 1.2 mph 1.9 kmh 3.5 mph5.6 kmh 30.00 in1015.9 mb - 0.00 in0.0 mm 0.00 in0.0 mm
03:25 AM 67.5°F19.7°C 60.7°F15.9°C 79% 3.5 mph 5.6 kmh 4.6 mph7.4 kmh 30.00 in1015.9 mb - 0.00 in0.0 mm 0.00 in0.0 mm
03:20 AM 67.5°F19.7°C 60.7°F15.9°C 79% 2.3 mph N3.7 kmh N 4.6 mph7.4 kmh 30.00 in1015.9 mb - 0.00 in0.0 mm 0.00 in0.0 mm
03:15 AM 67.6°F19.8°C 60.9°F16.1°C 79% 1.2 mph 1.9 kmh 3.5 mph5.6 kmh 30.00 in1015.9 mb - 0.00 in0.0 mm 0.00 in0.0 mm
03:10 AM 67.8°F19.9°C 60.7°F15.9°C 78% 1.2 mph 1.9 kmh 3.5 mph5.6 kmh 29.99 in1015.6 mb - 0.00 in0.0 mm 0.00 in0.0 mm
03:00 AM 68.0°F20.0°C 60.5°F15.8°C 77% 2.3 mph N3.7 kmh N 5.8 mph9.3 kmh 30.00 in1015.9 mb - 0.00 in0.0 mm 0.00 in0.0 mm
02:55 AM 68.0°F20.0°C 60.5°F15.8°C 77% 4.6 mph 7.4 kmh 5.8 mph9.3 kmh 30.00 in1015.9 mb - 0.00 in0.0 mm 0.00 in0.0 mm
02:50 AM 68.0°F20.0°C 60.5°F15.8°C 77% 3.5 mph 5.6 kmh 5.8 mph9.3 kmh 30.01 in1016.3 mb - 0.00 in0.0 mm 0.00 in0.0 mm
02:45 AM 68.0°F20.0°C 60.5°F15.8°C 77% 3.5 mph 5.6 kmh 5.8 mph9.3 kmh 30.00 in1015.9 mb - 0.00 in0.0 mm 0.00 in0.0 mm
02:40 AM 68.2°F20.1°C 60.7°F15.9°C 77% 4.6 mph 7.4 kmh 9.2 mph14.8 kmh 30.00 in1015.9 mb - 0.00 in0.0 mm 0.00 in0.0 mm
02:35 AM 68.2°F20.1°C 61.1°F16.2°C 78% 4.6 mph N7.4 kmh N 8.1 mph13.0 kmh 30.00 in1015.9 mb - 0.00 in0.0 mm 0.00 in0.0 mm
02:30 AM 68.2°F20.1°C 61.4°F16.3°C 79% 6.9 mph N11.1 kmh N 9.2 mph14.8 kmh 30.00 in1015.9 mb - 0.00 in0.0 mm 0.00 in0.0 mm
02:25 AM 68.2°F20.1°C 61.4°F16.3°C 79% 4.6 mph N7.4 kmh N 6.9 mph11.1 kmh 30.01 in1016.3 mb - 0.00 in0.0 mm 0.00 in0.0 mm
02:20 AM 68.4°F20.2°C 61.6°F16.4°C 79% 4.6 mph N7.4 kmh N 6.9 mph11.1 kmh 30.00 in1015.9 mb - 0.00 in0.0 mm 0.00 in0.0 mm
02:15 AM 68.4°F20.2°C 61.9°F16.6°C 80% 3.5 mph 5.6 kmh 5.8 mph9.3 kmh 30.00 in1015.9 mb - 0.00 in0.0 mm 0.00 in0.0 mm
02:10 AM 68.4°F20.2°C 62.0°F16.7°C 80% 5.8 mph N9.3 kmh N 10.4 mph16.7 kmh 30.00 in1015.9 mb - 0.00 in0.0 mm 0.00 in0.0 mm
02:00 AM 68.5°F20.3°C 62.1°F16.7°C 80% 3.5 mph 5.6 kmh 5.8 mph9.3 kmh 30.00 in1015.9 mb - 0.00 in0.0 mm 0.00 in0.0 mm
01:55 AM 68.4°F20.2°C 61.9°F16.6°C 80% 4.6 mph N7.4 kmh N 8.1 mph13.0 kmh 30.01 in1016.3 mb - 0.00 in0.0 mm 0.00 in0.0 mm
01:50 AM 68.4°F20.2°C 61.9°F16.6°C 80% 3.5 mph N5.6 kmh N 8.1 mph13.0 kmh 30.00 in1015.9 mb - 0.00 in0.0 mm 0.00 in0.0 mm
01:45 AM 68.3°F20.2°C 61.9°F16.6°C 80% 4.6 mph 7.4 kmh 5.8 mph9.3 kmh 30.00 in1015.9 mb - 0.00 in0.0 mm 0.00 in0.0 mm
01:40 AM 68.2°F20.1°C 61.8°F16.6°C 80% 3.5 mph 5.6 kmh 5.8 mph9.3 kmh 30.00 in1015.9 mb - 0.00 in0.0 mm 0.00 in0.0 mm
01:35 AM 68.2°F20.1°C 61.8°F16.6°C 80% 2.3 mph N3.7 kmh N 3.5 mph5.6 kmh 30.02 in1016.6 mb - 0.00 in0.0 mm 0.00 in0.0 mm
01:30 AM 68.0°F20.0°C 61.6°F16.4°C 80% 3.5 mph 5.6 kmh 5.8 mph9.3 kmh 30.01 in1016.3 mb - 0.00 in0.0 mm 0.00 in0.0 mm
01:25 AM 68.0°F20.0°C 61.6°F16.4°C 80% 2.3 mph N3.7 kmh N 6.9 mph11.1 kmh 30.01 in1016.3 mb - 0.00 in0.0 mm 0.00 in0.0 mm
01:20 AM 67.8°F19.9°C 61.8°F16.6°C 81% 3.5 mph 5.6 kmh 5.8 mph9.3 kmh 30.01 in1016.3 mb - 0.00 in0.0 mm 0.00 in0.0 mm
01:15 AM 67.8°F19.9°C 62.1°F16.7°C 82% 2.3 mph 3.7 kmh 5.8 mph9.3 kmh 30.01 in1016.3 mb - 0.00 in0.0 mm 0.00 in0.0 mm
01:10 AM 67.8°F19.9°C 62.1°F16.7°C 82% 3.5 mph 5.6 kmh 5.8 mph9.3 kmh 30.01 in1016.3 mb - 0.00 in0.0 mm 0.00 in0.0 mm
01:00 AM 67.8°F19.9°C 62.1°F16.7°C 82% 3.5 mph W5.6 kmh W 5.8 mph9.3 kmh 30.01 in1016.3 mb - 0.00 in0.0 mm 0.00 in0.0 mm
12:55 AM 67.8°F19.9°C 62.1°F16.7°C 82% 3.5 mph W5.6 kmh W 5.8 mph9.3 kmh 30.01 in1016.3 mb - 0.00 in0.0 mm 0.00 in0.0 mm
12:50 AM 67.8°F19.9°C 62.1°F16.7°C 82% 3.5 mph W5.6 kmh W 5.8 mph9.3 kmh 30.01 in1016.3 mb - 0.00 in0.0 mm 0.00 in0.0 mm
12:45 AM 67.8°F19.9°C 61.8°F16.6°C 81% 5.8 mph W9.3 kmh W 8.1 mph13.0 kmh 30.01 in1016.3 mb - 0.00 in0.0 mm 0.00 in0.0 mm
12:40 AM 68.0°F20.0°C 61.6°F16.4°C 80% 3.5 mph W5.6 kmh W 6.9 mph11.1 kmh 30.00 in1015.9 mb - 0.00 in0.0 mm 0.00 in0.0 mm
12:35 AM 68.0°F20.0°C 61.6°F16.4°C 80% 3.5 mph W5.6 kmh W 5.8 mph9.3 kmh 30.01 in1016.3 mb - 0.00 in0.0 mm 0.00 in0.0 mm
12:30 AM 68.0°F20.0°C 61.6°F16.4°C 80% 4.6 mph W7.4 kmh W 8.1 mph13.0 kmh 30.01 in1016.3 mb - 0.00 in0.0 mm 0.00 in0.0 mm
12:25 AM 68.2°F20.1°C 61.8°F16.6°C 80% 4.6 mph W7.4 kmh W 8.1 mph13.0 kmh 30.01 in1016.3 mb - 0.00 in0.0 mm 0.00 in0.0 mm
12:20 AM 68.4°F20.2°C 61.9°F16.6°C 80% 3.5 mph W5.6 kmh W 6.9 mph11.1 kmh 30.01 in1016.3 mb - 0.00 in0.0 mm 0.00 in0.0 mm
12:15 AM 68.4°F20.2°C 61.9°F16.6°C 80% 4.6 mph W7.4 kmh W 12.7 mph20.4 kmh 30.01 in1016.3 mb - 0.00 in0.0 mm 0.00 in0.0 mm
12:10 AM 68.4°F20.2°C 61.9°F16.6°C 80% 4.6 mph W7.4 kmh W 8.1 mph13.0 kmh 30.01 in1016.3 mb - 0.00 in0.0 mm 0.00 in0.0 mm
12:00 AM 68.4°F20.2°C 61.9°F16.6°C 80% 4.6 mph W7.4 kmh W 8.1 mph13.0 kmh 30.01 in1016.3 mb - 0.00 in0.0 mm 0.00 in0.0 mm